首页
METAR-TAF:

METAR-TAF

机场 :

波普拉德, 斯洛伐克

纬度: 49-04N, 经度: 020-15E, 海拔: 694米

当前天气观测

该预报发布于18分钟前的03:30 UTC
风速1节,风向多变
温度 -1°C
湿度 93%
气压 1028 hPa
能见度10公里或以上
1500米以下无云,无积雨云

METAR: LZTT 260330Z VRB01KT CAVOK M01/M02 Q1028

时间: 04:48 (03:48 UTC)

预报

该预报发布于4小时和48分钟前的23:00 UTC
预报有效从26日的 00点(UTC)到 27日的 00点(UTC)
风速6节,风向东北
能见度10公里或以上
1500米以下无云,无积雨云
成为
从 26日的 02点(UTC)到 26日的 04点(UTC)
风速2节,风向多变
几率 40% :
短暂存在
从 26日的 04点(UTC)到 26日的 08点(UTC)
能見度: 4000
散云层高于1000英尺
轻雾
成为
从 26日的 11点(UTC)到 26日的 13点(UTC)
风速10节,风向西
短暂存在
从 26日的 13点(UTC)到 26日的 17点(UTC)
风速20节,风向西转西南
能见度10公里或以上
多云层高于3000英尺
多云层高于5000英尺

TAF: LZTT 252300Z 2600/2700 04006KT CAVOK BECMG 2602/2604 VRB02KT PROB40 TEMPO 2604/2608 4000 BR SCT010 BECMG 2611/2613 26010KT TEMPO 2613/2617 25020KT 9999 BKN030 BKN050

超过4000个机场的气象观测和天气预报(METAR&TAF报告)。

可查询的气象台以黄色和红色小点在地图上表示。

将鼠标移到小点上方,可查看气象台名称。

然后点击查看天气观测和预报。

如需切换地图:点击带黑十字的绿色按钮放大地图;点击带横线的绿色按钮缩小地图;或者点击绿色箭头查看邻近地区的地图。


METAR-TAF: